createdAt,value
2022-08-01T00:09:50.476Z,21.71
2022-08-01T00:24:46.591Z,21.78
2022-08-01T00:39:42.020Z,21.76
2022-08-01T00:54:38.243Z,21.61
2022-08-01T01:09:34.082Z,21.66
2022-08-01T01:24:30.580Z,21.58
2022-08-01T01:39:27.209Z,21.52
2022-08-01T01:54:23.600Z,21.41
2022-08-01T02:09:19.994Z,21.33
2022-08-01T02:24:16.340Z,21.16
2022-08-01T02:39:12.421Z,21.08
2022-08-01T02:54:08.735Z,20.9
2022-08-01T03:09:04.848Z,20.83
2022-08-01T03:24:01.273Z,20.79
2022-08-01T03:38:57.475Z,20.71
2022-08-01T03:53:53.447Z,20.68
2022-08-01T04:08:49.619Z,20.58
2022-08-01T04:23:45.610Z,20.66
2022-08-01T04:38:42.031Z,20.61
2022-08-01T04:53:38.390Z,20.65
2022-08-01T05:08:34.600Z,20.72
2022-08-01T05:23:41.919Z,20.9
2022-08-01T05:38:27.123Z,21.18
2022-08-01T05:53:23.498Z,20.83
2022-08-01T06:08:19.850Z,21
2022-08-01T06:23:31.394Z,21.44
2022-08-01T06:38:12.459Z,21.35
2022-08-01T06:53:08.414Z,21.4
2022-08-01T07:08:05.503Z,22.31
2022-08-01T07:23:02.292Z,21.92
2022-08-01T07:37:58.690Z,22.22
2022-08-01T07:52:54.350Z,22.1
2022-08-01T08:07:50.363Z,22.55
2022-08-01T08:22:46.732Z,22.22
2022-08-01T08:37:47.490Z,22.87
2022-08-01T08:52:39.904Z,22.62
2022-08-01T09:07:35.953Z,23.1
2022-08-01T09:22:32.320Z,23.33
2022-08-01T09:37:28.914Z,24.37
2022-08-01T09:52:25.787Z,22.8
2022-08-01T10:07:21.411Z,22.46
2022-08-01T10:22:17.484Z,23.12
2022-08-01T10:37:14.074Z,24.85
2022-08-01T10:52:10.577Z,25.89
2022-08-01T11:07:09.998Z,27.4
2022-08-01T11:22:04.434Z,25.32
2022-08-01T11:37:00.462Z,24.42
2022-08-01T11:51:56.132Z,22.69
2022-08-01T12:06:52.473Z,24
2022-08-01T12:21:50.332Z,23.4
2022-08-01T12:36:44.821Z,24.69
2022-08-01T12:51:41.607Z,25.47
2022-08-01T13:06:37.988Z,24.27
2022-08-01T13:21:53.513Z,25
2022-08-01T13:36:30.647Z,24.75
2022-08-01T13:51:27.045Z,24.51
2022-08-01T14:06:23.207Z,24.74
2022-08-01T14:21:19.571Z,24.81
2022-08-01T14:36:29.763Z,24.4
2022-08-01T14:51:12.136Z,24.94
2022-08-01T15:06:08.709Z,25.01
2022-08-01T15:21:04.969Z,25.44
2022-08-01T15:36:01.282Z,26.05
2022-08-01T15:50:58.262Z,25.58
2022-08-01T16:05:53.910Z,25.01
2022-08-01T16:20:50.082Z,24.71
2022-08-01T16:35:46.869Z,24.82
2022-08-01T16:50:42.791Z,25.93
2022-08-01T17:05:39.192Z,25.67
2022-08-01T17:20:35.621Z,25.08
2022-08-01T17:35:31.458Z,24.54
2022-08-01T17:50:27.494Z,24.29
2022-08-01T18:05:23.635Z,24.28
2022-08-01T18:20:19.713Z,24.12
2022-08-01T18:35:16.259Z,23.79
2022-08-01T18:50:12.722Z,23.56
2022-08-01T19:05:08.985Z,23.04
2022-08-01T19:20:04.809Z,22.56
2022-08-01T19:35:00.567Z,22.03
2022-08-01T19:49:56.119Z,21.42
2022-08-01T20:04:52.085Z,20.71
2022-08-01T20:19:48.278Z,19.8
2022-08-01T20:34:43.701Z,19.49
2022-08-01T20:49:39.877Z,18.83
2022-08-01T22:04:19.786Z,17.37
2022-08-01T22:19:32.748Z,17
2022-08-01T22:34:11.576Z,16.57
2022-08-01T22:49:08.855Z,16.39
2022-08-01T23:04:03.723Z,16.08
2022-08-01T23:18:59.406Z,15.8
2022-08-01T23:33:55.196Z,15.51
2022-08-01T23:48:51.057Z,15.33
